Time;durP1;ratioP1;P1;durP2;ratioP2;P2;SDS_P1;SDS_P2;PMS_P1;PMS_P2;Temp;Humidity;BMP_temperature;BMP_pressure;BME280_temperature;BME280_humidity;BME280_pressure;Samples;Min_cycle;Max_cycle;Signal;HPM_P1;HPM_P2
2022/08/15 00:00:52;;;;;;;17.55;11.07;;;;;;;24.08;65.81;100223.25;5054928;28;20311;-47
2022/08/15 00:03:27;;;;;;;13.27;10.90;;;;;;;24.05;66.18;100224.63;5042849;28;20127;-47
2022/08/15 00:05:53;;;;;;;14.73;10.98;;;;;;;24.06;66.43;100225.44;5037680;28;20110;-46
2022/08/15 00:08:18;;;;;;;16.65;11.75;;;;;;;23.99;66.48;100218.28;5047931;28;20027;-50
2022/08/15 00:10:45;;;;;;;18.10;12.02;;;;;;;23.88;66.56;100223.97;5056901;28;20051;-48
2022/08/15 00:13:14;;;;;;;19.48;13.00;;;;;;;23.82;66.81;100232.13;5037498;28;20013;-48
2022/08/15 00:15:40;;;;;;;19.33;13.27;;;;;;;23.74;67.08;100227.13;5032417;28;20064;-48
2022/08/15 00:18:06;;;;;;;18.92;13.00;;;;;;;23.68;67.42;100224.66;5037344;28;20052;-49
2022/08/15 00:20:33;;;;;;;15.60;13.48;;;;;;;23.61;67.43;100235.81;5038174;28;20056;-46
2022/08/15 00:22:58;;;;;;;19.20;13.90;;;;;;;23.52;67.77;100245.53;5036414;28;20025;-49
2022/08/15 00:25:23;;;;;;;19.42;14.15;;;;;;;23.29;69.84;100250.28;5036617;28;20122;-46
2022/08/15 00:27:51;;;;;;;17.38;14.32;;;;;;;23.16;69.68;100256.16;5038211;28;20048;-50
2022/08/15 00:30:16;;;;;;;19.98;13.90;;;;;;;23.13;70.59;100243.88;5054580;28;20056;-48
2022/08/15 00:32:53;;;;;;;15.65;13.82;;;;;;;23.19;69.20;100242.03;5040823;28;20087;-47
2022/08/15 00:35:37;;;;;;;22.08;13.65;;;;;;;23.13;69.65;100251.22;5036772;28;20411;-50
2022/08/15 00:38:08;;;;;;;20.63;12.65;;;;;;;23.15;69.75;100238.16;5038470;28;20056;-49
2022/08/15 00:41:39;;;;;;;19.90;13.63;;;;;;;23.06;70.91;100233.19;5054194;28;20308;-48
2022/08/15 00:43:20;;;;;;;20.85;12.95;;;;;;;23.10;70.17;100247.13;5036689;28;20391;-49
2022/08/15 00:45:46;;;;;;;19.45;13.82;;;;;;;23.13;70.53;100245.78;5049581;28;20031;-49
2022/08/15 00:50:55;;;;;;;19.27;12.25;;;;;;;23.25;70.24;100230.06;5055925;28;20096;-47
2022/08/15 00:53:22;;;;;;;18.75;12.77;;;;;;;23.26;70.48;100226.28;5056543;28;20024;-47
2022/08/15 00:55:48;;;;;;;22.15;12.43;;;;;;;23.30;70.78;100227.38;5056881;28;20048;-46
2022/08/15 00:58:13;;;;;;;14.90;12.00;;;;;;;23.28;69.84;100230.38;5056793;28;20067;-50
2022/08/15 01:00:44;;;;;;;18.33;12.65;;;;;;;23.31;70.70;100229.03;5051326;28;20283;-51
2022/08/15 01:03:14;;;;;;;13.27;11.88;;;;;;;23.30;69.32;100229.31;5036380;28;20083;-49
2022/08/15 01:05:40;;;;;;;14.63;11.67;;;;;;;23.35;70.00;100218.44;5036566;28;20037;-50
2022/08/15 01:08:06;;;;;;;17.25;11.55;;;;;;;23.27;68.97;100220.56;5056795;28;20374;-47
2022/08/15 01:10:32;;;;;;;18.80;11.65;;;;;;;23.34;69.94;100220.34;5056591;28;20040;-49
2022/08/15 01:12:58;;;;;;;15.40;11.63;;;;;;;23.25;69.76;100220.03;5042789;28;20051;-50
2022/08/15 01:15:24;;;;;;;20.13;11.50;;;;;;;23.29;69.52;100225.75;5048574;28;20476;-49
2022/08/15 01:17:49;;;;;;;15.00;11.10;;;;;;;23.23;69.60;100229.53;5036532;28;20021;-49
2022/08/15 01:20:25;;;;;;;17.30;11.90;;;;;;;23.16;70.32;100223.47;5045856;28;20528;-47
2022/08/15 01:22:53;;;;;;;17.25;11.57;;;;;;;23.16;71.17;100218.03;5056672;28;20029;-50
2022/08/15 01:25:27;;;;;;;18.08;11.65;;;;;;;23.15;70.85;100213.66;5055586;28;20240;-49
2022/08/15 01:28:00;;;;;;;20.55;12.48;;;;;;;23.07;70.59;100223.13;5056850;28;20040;-49
2022/08/15 01:30:32;;;;;;;18.60;11.95;;;;;;;22.97;69.68;100215.66;5052712;28;20025;-47
2022/08/15 01:32:58;;;;;;;17.98;11.85;;;;;;;22.96;69.84;100216.72;5046573;28;20064;-46
2022/08/15 01:35:24;;;;;;;16.80;10.32;;;;;;;22.96;66.62;100218.63;5047563;28;20076;-47
2022/08/15 01:37:50;;;;;;;15.77;10.32;;;;;;;23.01;66.08;100224.13;5036064;28;20025;-48
2022/08/15 01:40:39;;;;;;;10.65;9.20;;;;;;;23.00;64.80;100211.63;5048215;28;20103;-46
2022/08/15 01:43:09;;;;;;;13.90;8.90;;;;;;;22.99;64.24;100205.31;5042176;28;20044;-47
2022/08/15 01:45:37;;;;;;;15.55;8.13;;;;;;;22.97;63.52;100207.50;5033771;28;20036;-50
2022/08/15 01:48:11;;;;;;;11.02;7.65;;;;;;;23.03;61.92;100203.75;5050725;28;20029;-49
2022/08/15 01:50:44;;;;;;;12.65;7.85;;;;;;;23.00;61.32;100204.25;5055740;28;20522;-47
2022/08/15 01:53:18;;;;;;;11.27;7.53;;;;;;;22.99;61.89;100208.06;5054431;28;20109;-49
2022/08/15 01:55:57;;;;;;;17.02;7.55;;;;;;;22.97;61.57;100198.50;5037110;28;20141;-46
2022/08/15 01:58:23;;;;;;;10.90;7.85;;;;;;;22.95;61.65;100204.22;5034975;28;20048;-49
2022/08/15 02:00:56;;;;;;;10.77;8.23;;;;;;;22.86;62.87;100200.31;5033134;28;20056;-49
2022/08/15 02:03:33;;;;;;;10.93;9.30;;;;;;;22.72;63.52;100216.25;5033937;28;20684;-46
2022/08/15 02:06:25;;;;;;;12.98;9.40;;;;;;;22.63;63.51;100204.19;5044463;28;20391;-45
2022/08/15 02:08:52;;;;;;;10.75;8.85;;;;;;;22.60;63.67;100204.69;5040724;28;20202;-47
2022/08/15 02:11:20;;;;;;;15.52;9.18;;;;;;;22.44;64.09;100220.06;5043863;28;20021;-50
2022/08/15 02:13:47;;;;;;;11.73;8.68;;;;;;;22.29;64.23;100229.66;5035425;28;20048;-46
2022/08/15 02:16:16;;;;;;;13.52;8.15;;;;;;;22.17;64.59;100239.84;5045713;28;20020;-46
2022/08/15 02:18:41;;;;;;;11.80;8.43;;;;;;;22.14;64.05;100230.28;5038301;28;20043;-49
2022/08/15 02:21:07;;;;;;;13.85;8.43;;;;;;;22.15;63.98;100222.97;5053482;28;20235;-48
2022/08/15 02:23:33;;;;;;;12.50;8.63;;;;;;;22.16;64.50;100219.97;5039299;28;20025;-47
2022/08/15 02:25:59;;;;;;;11.90;8.68;;;;;;;22.16;64.17;100227.31;5034988;28;20379;-46
2022/08/15 02:28:25;;;;;;;17.00;8.95;;;;;;;22.11;64.05;100227.25;5034783;28;20080;-45
2022/08/15 02:30:53;;;;;;;12.82;8.05;;;;;;;22.05;64.39;100229.09;5032371;28;20244;-46
2022/08/15 02:33:20;;;;;;;13.48;8.00;;;;;;;22.06;64.22;100235.34;5035378;28;20027;-51
2022/08/15 02:35:45;;;;;;;11.50;7.78;;;;;;;22.08;64.35;100239.47;5035037;28;20472;-47
2022/08/15 02:38:10;;;;;;;9.32;7.15;;;;;;;22.13;63.67;100231.38;5038311;28;20035;-46
2022/08/15 02:40:36;;;;;;;8.65;7.10;;;;;;;22.17;63.21;100232.50;5033346;28;20020;-45
2022/08/15 02:43:09;;;;;;;10.15;7.03;;;;;;;22.18;62.72;100230.59;5037345;28;20056;-47
2022/08/15 02:45:38;;;;;;;9.93;7.22;;;;;;;22.22;62.33;100236.38;5034462;28;20033;-48
2022/08/15 02:48:08;;;;;;;9.07;6.90;;;;;;;22.27;62.01;100231.81;5058489;28;20021;-47
2022/08/15 02:50:35;;;;;;;15.25;6.88;;;;;;;22.32;61.85;100236.53;5058658;28;20552;-50
2022/08/15 02:53:12;;;;;;;13.55;7.30;;;;;;;22.34;62.02;100224.28;5056056;28;20025;-48
2022/08/15 02:55:41;;;;;;;16.92;7.60;;;;;;;22.38;62.07;100230.03;5042434;28;20581;-48
2022/08/15 02:58:09;;;;;;;15.55;7.15;;;;;;;22.35;61.91;100238.69;5039304;28;20017;-46
2022/08/15 03:00:35;;;;;;;14.23;7.57;;;;;;;22.31;61.63;100238.41;5043825;28;20027;-48
2022/08/15 03:03:06;;;;;;;12.02;7.50;;;;;;;22.15;62.01;100240.09;5059328;28;20024;-49
2022/08/15 03:05:34;;;;;;;12.70;7.10;;;;;;;22.07;62.35;100242.44;5058609;28;20024;-48
2022/08/15 03:08:00;;;;;;;13.30;7.20;;;;;;;22.00;61.51;100237.19;5058527;28;20497;-48
2022/08/15 03:10:25;;;;;;;15.30;7.00;;;;;;;21.92;61.79;100243.84;5044061;28;20028;-48
2022/08/15 03:13:00;;;;;;;11.55;7.03;;;;;;;21.87;61.58;100235.63;5057117;28;20028;-49
2022/08/15 03:15:31;;;;;;;12.45;6.53;;;;;;;21.80;62.23;100232.28;5054400;28;20035;-47
2022/08/15 03:17:58;;;;;;;14.95;6.82;;;;;;;21.80;63.19;100232.28;5055396;28;20021;-46
2022/08/15 03:20:24;;;;;;;7.72;6.03;;;;;;;21.79;63.37;100238.78;5052006;28;20055;-46
2022/08/15 03:22:51;;;;;;;18.27;7.00;;;;;;;21.71;66.60;100229.16;5050356;28;20073;-45
2022/08/15 03:25:17;;;;;;;21.30;7.07;;;;;;;21.68;64.58;100231.56;5057063;28;20269;-47
2022/08/15 03:27:43;;;;;;;15.35;6.47;;;;;;;21.79;62.40;100220.59;5053503;28;20029;-49
2022/08/15 03:30:11;;;;;;;8.65;6.32;;;;;;;21.64;62.94;100233.97;5051841;28;20052;-47
2022/08/15 03:32:51;;;;;;;11.63;5.80;;;;;;;21.64;62.29;100233.13;5038108;28;20021;-47
2022/08/15 03:35:20;;;;;;;13.77;6.00;;;;;;;21.64;62.43;100233.13;5051774;28;20024;-47
2022/08/15 03:37:46;;;;;;;9.68;5.63;;;;;;;21.58;62.65;100240.41;5058512;28;20017;-46
2022/08/15 03:40:12;;;;;;;8.70;5.70;;;;;;;21.42;62.03;100240.13;5051487;28;20364;-47
2022/08/15 03:42:38;;;;;;;13.57;5.63;;;;;;;21.23;62.40;100236.00;5045079;28;20121;-48
2022/08/15 03:45:09;;;;;;;8.77;5.47;;;;;;;21.10;62.99;100236.34;5053048;28;20658;-49
2022/08/15 03:47:35;;;;;;;7.88;4.72;;;;;;;21.04;62.30;100232.72;5037353;28;20032;-51
2022/08/15 03:50:00;;;;;;;5.18;4.50;;;;;;;20.97;62.42;100232.06;5037967;28;20086;-48
2022/08/15 03:52:25;;;;;;;8.55;5.00;;;;;;;20.92;62.50;100232.78;5048190;28;20025;-48
2022/08/15 03:54:51;;;;;;;11.35;5.03;;;;;;;20.92;62.73;100231.97;5055791;28;20442;-50
2022/08/15 03:57:17;;;;;;;11.70;4.80;;;;;;;20.90;62.75;100234.91;5040649;28;20032;-46
2022/08/15 03:59:43;;;;;;;6.80;4.88;;;;;;;20.86;62.58;100229.16;5036613;28;20029;-46
2022/08/15 04:02:10;;;;;;;12.35;4.60;;;;;;;20.87;63.08;100232.69;5055188;28;20356;-48
2022/08/15 04:04:36;;;;;;;7.20;4.85;;;;;;;20.86;62.82;100225.63;5049846;28;20040;-48
2022/08/15 04:07:03;;;;;;;6.18;4.50;;;;;;;20.83;62.87;100228.84;5037138;28;20516;-47
2022/08/15 04:09:28;;;;;;;10.23;4.88;;;;;;;20.81;63.52;100233.69;5037718;28;20403;-47
2022/08/15 04:11:54;;;;;;;11.63;5.03;;;;;;;20.80;63.05;100237.47;5047286;28;20024;-46
2022/08/15 04:14:21;;;;;;;8.57;5.38;;;;;;;20.76;62.52;100236.31;5048588;28;20024;-45
2022/08/15 04:16:46;;;;;;;7.10;5.05;;;;;;;20.67;62.89;100249.41;5055970;28;20111;-47
2022/08/15 04:19:13;;;;;;;13.20;5.25;;;;;;;20.59;63.56;100253.31;5056895;28;20626;-50
2022/08/15 04:21:38;;;;;;;11.25;5.40;;;;;;;20.55;63.38;100257.56;5049992;28;20483;-49
2022/08/15 04:24:04;;;;;;;8.98;5.38;;;;;;;20.53;63.52;100256.19;5045138;28;20032;-48
2022/08/15 04:26:29;;;;;;;14.07;5.15;;;;;;;20.54;63.40;100253.22;5037671;28;20043;-48
2022/08/15 04:28:54;;;;;;;25.17;5.35;;;;;;;20.57;63.30;100246.47;5048509;28;20032;-48
2022/08/15 04:31:21;;;;;;;7.45;5.20;;;;;;;20.55;63.39;100248.63;5055480;28;20025;-48
2022/08/15 04:33:47;;;;;;;10.75;5.72;;;;;;;20.49;63.09;100258.56;5056975;28;20362;-48
2022/08/15 04:36:16;;;;;;;10.38;5.20;;;;;;;20.49;63.56;100253.94;5057171;28;20094;-49
2022/08/15 04:38:43;;;;;;;7.28;5.32;;;;;;;20.47;63.43;100250.66;5055570;28;20518;-48
2022/08/15 04:41:10;;;;;;;11.27;5.72;;;;;;;20.45;63.41;100263.66;5052469;28;20039;-46
2022/08/15 04:43:38;;;;;;;7.93;5.50;;;;;;;20.41;63.01;100258.94;5036953;28;20033;-47
2022/08/15 04:46:05;;;;;;;13.40;5.20;;;;;;;20.44;64.54;100250.31;5049778;28;20031;-46
2022/08/15 04:48:31;;;;;;;11.50;5.53;;;;;;;20.49;63.13;100262.09;5038388;28;20037;-46
2022/08/15 04:50:58;;;;;;;15.07;5.47;;;;;;;20.52;63.39;100260.78;5034917;28;20017;-51
2022/08/15 04:53:27;;;;;;;13.20;5.45;;;;;;;20.48;63.19;100259.59;5040016;28;20032;-49
2022/08/15 04:55:53;;;;;;;8.27;5.57;;;;;;;20.54;64.80;100257.84;5051403;28;20025;-50
2022/08/15 04:58:19;;;;;;;7.28;5.20;;;;;;;20.59;63.50;100250.63;5036400;28;20087;-50
2022/08/15 05:00:56;;;;;;;9.18;5.75;;;;;;;20.59;63.35;100258.75;5034034;28;20058;-48
2022/08/15 05:03:22;;;;;;;11.10;5.32;;;;;;;20.65;63.47;100255.09;5035644;28;20049;-46
2022/08/15 05:05:52;;;;;;;11.32;5.60;;;;;;;20.68;63.19;100260.03;5036269;28;20035;-45
2022/08/15 05:08:18;;;;;;;18.30;6.13;;;;;;;20.74;62.97;100260.13;5035509;28;20028;-45
2022/08/15 05:10:48;;;;;;;10.73;6.00;;;;;;;20.75;62.68;100259.88;5035440;28;20021;-47
2022/08/15 05:13:17;;;;;;;10.57;5.70;;;;;;;20.75;63.96;100265.31;5036375;28;20049;-49
2022/08/15 05:15:44;;;;;;;17.77;6.22;;;;;;;20.78;63.90;100269.44;5038146;28;20099;-49
2022/08/15 05:18:09;;;;;;;14.38;5.65;;;;;;;20.83;63.50;100273.06;5047609;28;20029;-48
2022/08/15 05:20:35;;;;;;;14.52;5.60;;;;;;;20.81;63.86;100266.25;5043890;28;20426;-47
2022/08/15 05:23:07;;;;;;;13.82;5.70;;;;;;;20.83;64.25;100277.69;5049911;28;20028;-46
2022/08/15 05:25:35;;;;;;;14.85;6.15;;;;;;;20.78;64.51;100274.88;5039940;28;20264;-46
2022/08/15 05:28:01;;;;;;;9.05;6.00;;;;;;;20.83;64.61;100277.69;5044643;28;20394;-47
2022/08/15 05:30:27;;;;;;;10.27;5.93;;;;;;;20.86;64.80;100278.03;5053382;28;20089;-48
2022/08/15 05:33:02;;;;;;;18.52;6.22;;;;;;;20.87;65.34;100273.41;5049580;28;20120;-48
2022/08/15 05:35:29;;;;;;;10.43;6.15;;;;;;;20.91;65.54;100273.75;5035454;28;20523;-48
2022/08/15 05:37:56;;;;;;;15.38;6.20;;;;;;;20.98;65.88;100271.72;5035097;28;20031;-47
2022/08/15 05:40:22;;;;;;;11.05;5.97;;;;;;;21.03;65.68;100279.94;5034283;28;20136;-50
2022/08/15 05:43:04;;;;;;;14.15;5.68;;;;;;;21.11;65.54;100279.53;5036118;28;20035;-47
2022/08/15 05:45:37;;;;;;;12.60;6.20;;;;;;;21.21;65.50;100282.41;5031613;28;20101;-46
2022/08/15 05:48:12;;;;;;;16.67;5.70;;;;;;;21.24;65.79;100279.22;5039127;28;20052;-49
2022/08/15 05:50:49;;;;;;;12.13;5.85;;;;;;;21.27;65.79;100291.50;5041595;28;20475;-50
2022/08/15 05:53:39;;;;;;;13.98;5.78;;;;;;;21.17;66.60;100294.03;5048641;28;20032;-48
2022/08/15 05:56:31;;;;;;;14.17;5.70;;;;;;;21.14;67.67;100311.63;5054375;28;20047;-49
2022/08/15 05:59:11;;;;;;;11.50;5.68;;;;;;;21.04;68.40;100287.84;5043272;28;20033;-46
2022/08/15 06:01:43;;;;;;;12.95;5.82;;;;;;;21.03;69.94;100298.97;5034160;28;20507;-46
2022/08/15 06:04:16;;;;;;;13.70;5.85;;;;;;;21.07;69.62;100302.00;5035796;28;20110;-47
2022/08/15 06:06:45;;;;;;;12.43;5.53;;;;;;;21.05;70.44;100292.19;5035086;28;20108;-48
2022/08/15 06:09:32;;;;;;;12.85;5.97;;;;;;;21.09;70.35;100281.66;5035315;28;20485;-47
2022/08/15 06:12:00;;;;;;;16.08;5.90;;;;;;;21.13;70.97;100284.72;5034469;28;20040;-50
2022/08/15 06:14:30;;;;;;;12.18;5.70;;;;;;;21.23;71.41;100284.88;5033917;28;20497;-50
2022/08/15 06:17:02;;;;;;;12.60;5.78;;;;;;;21.23;71.60;100296.59;5033913;28;20250;-46
2022/08/15 06:19:37;;;;;;;13.00;5.75;;;;;;;21.21;71.70;100295.19;5046618;28;20028;-45
2022/08/15 06:22:28;;;;;;;14.38;5.80;;;;;;;21.22;72.02;100305.81;5050441;28;20033;-47
2022/08/15 06:25:32;;;;;;;13.32;5.68;;;;;;;21.28;71.63;100305.88;5032551;28;20041;-47
2022/08/15 06:28:23;;;;;;;16.58;5.85;;;;;;;21.32;72.22;100307.06;5030990;28;20044;-46
2022/08/15 06:30:52;;;;;;;9.98;5.53;;;;;;;21.38;72.36;100316.94;5052917;28;20142;-47
2022/08/15 06:33:33;;;;;;;21.38;5.25;;;;;;;21.40;72.46;100314.78;5049544;28;20484;-46
2022/08/15 06:36:16;;;;;;;11.55;4.90;;;;;;;21.45;72.68;100308.63;5054329;28;20024;-46
2022/08/15 06:39:06;;;;;;;17.20;5.68;;;;;;;21.52;72.54;100299.28;5038280;28;20508;-46
2022/08/15 06:41:50;;;;;;;10.60;5.80;;;;;;;21.56;73.18;100314.00;5034604;28;20016;-47
2022/08/15 06:44:18;;;;;;;16.23;5.25;;;;;;;21.69;73.75;100301.16;5033532;28;20029;-46
2022/08/15 06:46:44;;;;;;;14.98;5.82;;;;;;;21.83;72.65;100301.66;5048360;28;20383;-49
2022/08/15 06:49:12;;;;;;;17.65;5.97;;;;;;;21.97;73.06;100308.38;5054204;28;20099;-49
2022/08/15 06:51:39;;;;;;;9.07;5.30;;;;;;;21.95;72.81;100308.63;5055033;28;20132;-47
2022/08/15 06:54:11;;;;;;;12.05;5.50;;;;;;;21.92;73.65;100297.41;5054190;28;20482;-46
2022/08/15 06:56:51;;;;;;;13.43;5.65;;;;;;;21.93;74.02;100309.94;5041325;28;20029;-48
2022/08/15 06:59:40;;;;;;;15.45;6.45;;;;;;;21.92;74.29;100319.97;5041135;28;20505;-49
2022/08/15 07:02:31;;;;;;;10.93;5.97;;;;;;;21.84;74.66;100311.44;5033118;28;20663;-47
2022/08/15 07:05:05;;;;;;;13.80;5.88;;;;;;;21.83;75.57;100317.97;5028290;28;20307;-48
2022/08/15 07:07:50;;;;;;;18.15;6.03;;;;;;;21.86;75.13;100312.84;5048729;28;20052;-46
2022/08/15 07:10:34;;;;;;;17.42;6.00;;;;;;;21.89;75.15;100320.47;5034295;28;20458;-48
2022/08/15 07:13:04;;;;;;;18.95;6.03;;;;;;;21.80;76.70;100311.94;5035350;28;20531;-48
2022/08/15 07:15:52;;;;;;;11.88;6.45;;;;;;;21.81;76.40;100318.22;5045979;28;20024;-46
2022/08/15 07:18:30;;;;;;;15.07;6.10;;;;;;;21.77;77.10;100323.28;5055090;28;20492;-50
2022/08/15 07:21:05;;;;;;;12.77;6.05;;;;;;;21.79;76.82;100309.44;5054096;28;20111;-50
2022/08/15 07:23:33;;;;;;;13.02;6.60;;;;;;;21.86;76.65;100299.25;5054752;28;20025;-49
2022/08/15 07:26:10;;;;;;;20.25;6.00;;;;;;;22.01;77.06;100304.06;5054326;28;20016;-48
2022/08/15 07:28:38;;;;;;;10.60;6.20;;;;;;;22.25;76.59;100299.25;5054345;28;20017;-49
2022/08/15 07:31:20;;;;;;;21.10;6.68;;;;;;;22.62;75.42;100304.06;5049225;28;20475;-50
2022/08/15 07:33:49;;;;;;;17.60;6.60;;;;;;;22.96;73.45;100316.69;5050100;28;20531;-48
2022/08/15 07:36:16;;;;;;;17.08;7.05;;;;;;;22.97;73.40;100321.06;5047446;28;20033;-47
2022/08/15 07:38:43;;;;;;;22.50;7.35;;;;;;;22.97;73.56;100305.53;5037876;28;20031;-48
2022/08/15 07:41:33;;;;;;;30.73;7.60;;;;;;;22.99;73.79;100311.53;5040437;28;20028;-47
2022/08/15 07:44:15;;;;;;;22.47;7.70;;;;;;;22.97;74.10;100321.06;5036740;28;20363;-46
2022/08/15 07:46:49;;;;;;;19.88;8.60;;;;;;;22.86;74.61;100303.78;5054071;28;20355;-47
2022/08/15 07:49:25;;;;;;;24.35;8.45;;;;;;;22.87;75.08;100317.13;5057914;28;20020;-48
2022/08/15 07:52:05;;;;;;;16.17;8.48;;;;;;;22.85;75.26;100318.47;5039727;28;20029;-46
2022/08/15 07:54:36;;;;;;;20.70;8.45;;;;;;;22.79;75.12;100317.59;5037167;28;20029;-46
2022/08/15 07:57:06;;;;;;;23.88;8.50;;;;;;;22.80;75.13;100321.97;5037166;28;20032;-47
2022/08/15 07:59:36;;;;;;;16.05;8.20;;;;;;;22.85;76.21;100324.75;5036958;28;20602;-48
2022/08/15 08:02:17;;;;;;;16.45;7.60;;;;;;;22.90;75.46;100324.78;5052368;28;20086;-47
2022/08/15 08:04:43;;;;;;;13.18;8.27;;;;;;;23.02;75.10;100329.28;5042264;28;20438;-50
2022/08/15 08:07:26;;;;;;;20.00;8.45;;;;;;;23.07;74.67;100318.47;5057362;28;20227;-46
2022/08/15 08:10:10;;;;;;;17.75;8.88;;;;;;;23.26;74.80;100327.09;5057163;28;20474;-47
2022/08/15 08:12:56;;;;;;;21.58;9.55;;;;;;;23.35;73.52;100325.53;5056156;28;20031;-48
2022/08/15 08:15:44;;;;;;;17.88;9.35;;;;;;;23.36;73.00;100326.38;5051938;28;20029;-48
2022/08/15 08:18:19;;;;;;;14.60;9.02;;;;;;;23.21;73.03;100322.41;5037825;28;20044;-46
2022/08/15 08:20:52;;;;;;;14.48;8.40;;;;;;;23.21;74.42;100329.75;5035338;28;20037;-49
2022/08/15 08:23:32;;;;;;;22.85;9.77;;;;;;;23.34;73.49;100336.72;5037347;28;20039;-46
2022/08/15 08:26:16;;;;;;;19.75;8.32;;;;;;;23.39;73.72;100332.13;5041472;28;20013;-50
2022/08/15 08:28:59;;;;;;;12.77;8.40;;;;;;;23.42;73.72;100334.34;5055486;28;20029;-49
2022/08/15 08:31:55;;;;;;;15.80;7.97;;;;;;;23.43;73.68;100335.97;5055396;28;20625;-46
2022/08/15 08:34:34;;;;;;;16.00;8.95;;;;;;;23.44;73.13;100331.34;5047421;28;20037;-46
2022/08/15 08:37:23;;;;;;;18.10;8.45;;;;;;;23.41;72.85;100338.13;5050466;28;20035;-48
2022/08/15 08:39:55;;;;;;;19.75;7.90;;;;;;;23.41;73.24;100340.03;5055705;28;20028;-50
2022/08/15 08:42:50;;;;;;;17.45;8.18;;;;;;;23.44;73.49;100332.16;5052408;28;20055;-47
2022/08/15 08:45:27;;;;;;;16.27;8.10;;;;;;;23.54;73.62;100328.72;5049699;28;20109;-47
2022/08/15 08:48:31;;;;;;;15.00;8.00;;;;;;;23.68;72.51;100340.00;5056732;28;20032;-49
2022/08/15 08:51:09;;;;;;;17.63;7.75;;;;;;;23.75;72.85;100324.22;5056485;28;20508;-48
2022/08/15 08:53:55;;;;;;;14.88;6.88;;;;;;;23.84;72.28;100335.50;5055284;28;20016;-47
2022/08/15 08:56:30;;;;;;;13.70;7.47;;;;;;;23.92;72.54;100331.47;5056766;28;20071;-48
2022/08/15 08:59:09;;;;;;;15.77;7.57;;;;;;;23.89;72.48;100335.53;5055580;28;20460;-47
2022/08/15 09:01:37;;;;;;;17.08;7.28;;;;;;;23.80;73.01;100343.34;5040831;28;20116;-48
2022/08/15 09:04:07;;;;;;;13.38;7.30;;;;;;;23.79;72.62;100343.59;5036622;28;20067;-46
2022/08/15 09:06:40;;;;;;;19.85;7.80;;;;;;;23.79;73.46;100349.06;5047534;28;20039;-46
2022/08/15 09:09:16;;;;;;;14.40;7.93;;;;;;;23.79;72.65;100347.13;5036006;28;20232;-47
2022/08/15 09:11:47;;;;;;;19.95;9.05;;;;;;;23.82;71.99;100351.28;5042884;28;20024;-49
2022/08/15 09:14:27;;;;;;;12.50;7.95;;;;;;;23.86;72.60;100344.22;5054548;28;20017;-48
2022/08/15 09:16:58;;;;;;;15.68;7.80;;;;;;;23.94;72.27;100342.94;5047831;28;20127;-48
2022/08/15 09:19:27;;;;;;;15.00;7.95;;;;;;;23.98;72.14;100354.94;5046606;28;20032;-50
2022/08/15 09:21:53;;;;;;;16.20;8.00;;;;;;;23.99;72.71;100351.13;5055893;28;20024;-48
2022/08/15 09:24:21;;;;;;;16.60;8.05;;;;;;;23.92;72.80;100356.81;5045590;28;20071;-49
2022/08/15 09:26:58;;;;;;;15.45;7.93;;;;;;;23.78;72.56;100361.88;5036497;28;20035;-48
2022/08/15 09:29:31;;;;;;;11.57;7.70;;;;;;;23.67;73.15;100354.69;5034939;28;20027;-47
2022/08/15 09:32:15;;;;;;;11.70;7.72;;;;;;;23.61;72.93;100350.28;5034608;28;20036;-48
2022/08/15 09:35:01;;;;;;;12.20;7.72;;;;;;;23.59;73.48;100349.72;5035383;28;20013;-47
2022/08/15 09:37:45;;;;;;;11.43;7.32;;;;;;;23.52;73.23;100355.38;5041638;28;20109;-46
2022/08/15 09:40:38;;;;;;;13.07;8.18;;;;;;;23.55;74.14;100363.03;5045552;28;20659;-47
2022/08/15 09:43:06;;;;;;;15.40;7.85;;;;;;;23.54;75.60;100363.28;5055734;28;20328;-46
2022/08/15 09:45:47;;;;;;;17.33;7.85;;;;;;;23.41;77.33;100359.94;5035359;28;20095;-49
2022/08/15 09:48:22;;;;;;;20.33;8.13;;;;;;;23.43;77.28;100356.94;5040508;28;20482;-51
2022/08/15 09:50:53;;;;;;;14.77;8.10;;;;;;;23.51;79.10;100358.38;5049923;28;20504;-50
2022/08/15 09:53:33;;;;;;;16.55;7.70;;;;;;;23.74;76.80;100355.28;5035567;28;20041;-50
2022/08/15 09:56:10;;;;;;;11.75;7.53;;;;;;;23.88;76.19;100346.69;5046563;28;20525;-48
2022/08/15 09:59:14;;;;;;;13.50;7.65;;;;;;;24.13;75.15;100355.03;5053716;28;20035;-46
2022/08/15 10:01:46;;;;;;;13.70;7.13;;;;;;;24.41;73.01;100358.47;5054492;28;20104;-48
2022/08/15 10:04:14;;;;;;;15.00;7.32;;;;;;;24.50;71.86;100353.34;5054096;28;20505;-47
2022/08/15 10:06:52;;;;;;;17.23;7.30;;;;;;;24.76;71.06;100352.38;5041747;28;20021;-47
2022/08/15 10:09:32;;;;;;;17.58;7.63;;;;;;;25.03;69.27;100361.47;5045708;28;20039;-49
2022/08/15 10:12:06;;;;;;;23.08;7.93;;;;;;;25.14;68.41;100355.75;5041015;28;20020;-49
2022/08/15 10:14:42;;;;;;;18.30;7.97;;;;;;;25.38;67.85;100365.41;5047999;28;20315;-48
2022/08/15 10:17:33;;;;;;;12.80;7.22;;;;;;;25.48;66.30;100360.75;5033676;28;20068;-47
2022/08/15 10:20:18;;;;;;;13.88;6.45;;;;;;;25.52;65.54;100355.53;5043362;28;20029;-46
2022/08/15 10:23:08;;;;;;;11.13;6.68;;;;;;;25.50;65.58;100349.53;5049828;28;20043;-49
2022/08/15 10:25:37;;;;;;;13.25;7.03;;;;;;;25.49;64.67;100343.25;5054541;28;20054;-47
2022/08/15 10:28:06;;;;;;;13.85;6.75;;;;;;;25.47;64.88;100350.06;5036703;28;20032;-49
2022/08/15 10:30:38;;;;;;;14.52;7.18;;;;;;;25.36;64.70;100356.63;5032954;28;20270;-47
2022/08/15 10:33:21;;;;;;;16.25;6.85;;;;;;;25.30;65.25;100356.63;5035722;28;20392;-50
2022/08/15 10:35:47;;;;;;;10.45;6.18;;;;;;;25.31;65.87;100362.91;5035057;28;20025;-47
2022/08/15 10:38:19;;;;;;;16.10;6.88;;;;;;;25.33;65.83;100366.19;5034368;28;20101;-45
2022/08/15 10:41:03;;;;;;;16.35;6.60;;;;;;;25.31;65.32;100362.91;5035787;28;20519;-45
2022/08/15 10:43:32;;;;;;;14.07;6.55;;;;;;;25.17;65.19;100359.03;5039274;28;20028;-50
2022/08/15 10:46:17;;;;;;;20.50;7.00;;;;;;;25.18;65.83;100357.94;5048693;28;20044;-45
2022/08/15 10:48:57;;;;;;;14.63;6.07;;;;;;;25.15;65.80;100359.28;5035367;28;20029;-46
2022/08/15 10:51:53;;;;;;;15.07;6.25;;;;;;;25.16;65.53;100363.69;5044089;28;20025;-47
2022/08/15 10:54:50;;;;;;;11.80;5.97;;;;;;;25.09;66.28;100363.94;5048424;28;20025;-49
2022/08/15 10:57:19;;;;;;;18.58;6.20;;;;;;;24.99;66.13;100365.84;5049756;28;20344;-49
2022/08/15 10:59:51;;;;;;;10.63;5.95;;;;;;;24.99;65.65;100372.13;5033780;28;20036;-46
2022/08/15 11:02:41;;;;;;;14.18;5.57;;;;;;;25.07;66.12;100371.59;5031986;28;20021;-48
2022/08/15 11:05:22;;;;;;;16.20;6.05;;;;;;;25.10;65.67;100376.53;5034251;28;20049;-46
2022/08/15 11:07:51;;;;;;;9.45;5.70;;;;;;;25.07;65.46;100362.59;5034932;28;20025;-46
2022/08/15 11:10:20;;;;;;;15.07;6.05;;;;;;;25.13;66.65;100377.88;5039445;28;20440;-46
2022/08/15 11:12:54;;;;;;;11.02;5.60;;;;;;;25.04;65.83;100374.03;5042224;28;20028;-46
2022/08/15 11:15:22;;;;;;;14.32;6.25;;;;;;;24.94;66.66;100367.44;5049337;28;20031;-49
2022/08/15 11:17:57;;;;;;;12.15;5.35;;;;;;;24.91;66.85;100376.19;5042272;28;20519;-46
2022/08/15 11:20:24;;;;;;;8.48;5.50;;;;;;;24.86;66.02;100367.97;5044064;28;20438;-49
2022/08/15 11:22:53;;;;;;;14.80;5.30;;;;;;;24.85;66.67;100377.28;5053323;28;20038;-46
2022/08/15 11:25:24;;;;;;;8.90;5.68;;;;;;;24.73;65.91;100371.22;5057840;28;20066;-50
2022/08/15 11:28:20;;;;;;;14.73;5.60;;;;;;;24.78;66.97;100373.97;5045843;28;20090;-47
2022/08/15 11:30:47;;;;;;;10.15;5.32;;;;;;;24.67;66.11;100381.28;5036380;28;20021;-47
2022/08/15 11:33:25;;;;;;;11.48;5.60;;;;;;;24.68;66.91;100371.19;5041629;28;20033;-47
2022/08/15 11:36:11;;;;;;;15.73;5.50;;;;;;;24.71;66.83;100376.09;5038105;28;20115;-50
2022/08/15 11:39:06;;;;;;;11.02;5.45;;;;;;;24.70;67.21;100369.81;5037256;28;20067;-48
2022/08/15 11:41:40;;;;;;;20.30;7.10;;;;;;;24.79;66.79;100378.31;5039631;28;20312;-49
2022/08/15 11:44:08;;;;;;;15.45;6.10;;;;;;;24.88;66.62;100375.91;5042198;28;20037;-49
2022/08/15 11:46:34;;;;;;;10.43;5.30;;;;;;;24.98;66.73;100377.84;5049071;28;20075;-48